createdAt,value
2022-12-15T00:02:25.120Z,99451.94
2022-12-15T00:05:10.481Z,99451.06
2022-12-15T00:07:55.744Z,99458.66
2022-12-15T00:10:41.432Z,99454.31
2022-12-15T00:13:30.888Z,99459.38
2022-12-15T00:16:17.040Z,99462.66
2022-12-15T00:19:05.537Z,99473.94
2022-12-15T00:21:50.730Z,99481.63
2022-12-15T00:24:36.391Z,99484.03
2022-12-15T00:27:22.514Z,99485.53
2022-12-15T00:30:07.735Z,99485.44
2022-12-15T00:32:53.584Z,99489.63
2022-12-15T00:35:38.630Z,99486.91
2022-12-15T00:38:28.822Z,99492.78
2022-12-15T00:40:59.489Z,99494.38
2022-12-15T00:43:27.926Z,99497.63
2022-12-15T00:46:13.494Z,99494.97
2022-12-15T00:48:41.295Z,99499.34
2022-12-15T00:51:08.471Z,99505.25
2022-12-15T00:53:53.814Z,99499.84
2022-12-15T00:56:38.988Z,99490.06
2022-12-15T00:59:24.348Z,99485.72
2022-12-15T01:10:33.900Z,99501.56
2022-12-15T01:13:19.368Z,99495.34
2022-12-15T01:16:04.379Z,99497.81
2022-12-15T01:18:52.888Z,99502.88
2022-12-15T01:21:24.300Z,99506.34
2022-12-15T01:23:52.055Z,99503.56
2022-12-15T01:26:18.631Z,99507.91
2022-12-15T01:28:45.173Z,99507.91
2022-12-15T01:31:12.470Z,99501.78
2022-12-15T01:33:42.678Z,99509.50
2022-12-15T01:36:10.087Z,99511.09
2022-12-15T01:38:36.721Z,99507.53
2022-12-15T01:41:06.324Z,99500.41
2022-12-15T01:43:35.754Z,99506.28
2022-12-15T01:46:35.938Z,99516.44
2022-12-15T01:49:17.521Z,99524.13
2022-12-15T01:51:52.290Z,99518.13
2022-12-15T01:54:18.757Z,99518.22
2022-12-15T01:56:49.982Z,99530.16
2022-12-15T01:59:29.207Z,99519.81
2022-12-15T02:01:55.955Z,99534.22
2022-12-15T02:04:23.843Z,99536.72
2022-12-15T02:06:50.795Z,99537.59
2022-12-15T02:09:18.711Z,99531.47
2022-12-15T02:12:02.675Z,99529.09
2022-12-15T02:14:45.361Z,99529.00
2022-12-15T02:17:45.488Z,99535.81
2022-12-15T02:20:49.927Z,99539.19
2022-12-15T02:23:47.139Z,99545.09
2022-12-15T02:26:42.117Z,99531.38
2022-12-15T02:29:13.172Z,99529.91
2022-12-15T02:32:00.052Z,99522.19
2022-12-15T02:34:34.537Z,99530.09
2022-12-15T02:37:16.772Z,99536.22
2022-12-15T02:39:43.628Z,99530.47
2022-12-15T02:42:13.994Z,99538.56
2022-12-15T02:45:01.703Z,99552.63
2022-12-15T02:47:34.382Z,99535.56
2022-12-15T02:50:33.362Z,99543.50
2022-12-15T02:53:31.542Z,99530.81
2022-12-15T02:56:10.549Z,99552.38
2022-12-15T02:58:48.357Z,99557.63
2022-12-15T03:01:26.549Z,99557.72
2022-12-15T03:03:53.832Z,99556.13
2022-12-15T03:06:20.502Z,99555.44
2022-12-15T03:08:47.498Z,99561.56
2022-12-15T03:11:14.079Z,99566.81
2022-12-15T03:13:40.603Z,99562.56
2022-12-15T03:16:07.269Z,99563.66
2022-12-15T03:18:34.162Z,99574.03
2022-12-15T03:21:00.751Z,99573.44
2022-12-15T03:23:27.335Z,99580.41
2022-12-15T03:25:54.028Z,99577.25
2022-12-15T03:28:20.621Z,99581.72
2022-12-15T03:30:50.636Z,99565.56
2022-12-15T03:33:17.771Z,99561.50
2022-12-15T03:35:44.397Z,99563.38
2022-12-15T03:38:10.942Z,99569.59
2022-12-15T03:40:37.468Z,99565.44
2022-12-15T03:43:04.005Z,99569.09
2022-12-15T03:45:30.663Z,99571.84
2022-12-15T03:47:57.719Z,99578.78
2022-12-15T03:50:26.931Z,99573.81
2022-12-15T03:52:56.453Z,99581.63
2022-12-15T03:55:23.708Z,99586.94
2022-12-15T03:57:51.262Z,99585.44
2022-12-15T04:00:20.040Z,99591.56
2022-12-15T04:02:49.976Z,99599.50
2022-12-15T04:05:27.778Z,99599.50
2022-12-15T04:07:56.643Z,99596.03
2022-12-15T04:10:31.734Z,99600.38
2022-12-15T04:13:02.885Z,99603.06
2022-12-15T04:15:29.662Z,99616.88
2022-12-15T04:17:56.769Z,99617.88
2022-12-15T04:20:23.300Z,99616.25
2022-12-15T04:22:50.934Z,99612.91
2022-12-15T04:25:39.764Z,99609.69
2022-12-15T04:28:25.889Z,99618.59
2022-12-15T04:31:36.704Z,99612.97
2022-12-15T04:34:25.813Z,99623.28
2022-12-15T04:37:12.349Z,99621.09
2022-12-15T04:40:09.429Z,99626.69
2022-12-15T04:42:59.359Z,99625.09
2022-12-15T04:45:44.602Z,99622.56
2022-12-15T04:48:29.947Z,99615.44
2022-12-15T04:51:15.513Z,99614.16
2022-12-15T04:54:04.259Z,99614.66
2022-12-15T04:56:50.948Z,99612.50
2022-12-15T04:59:36.627Z,99609.59
2022-12-15T05:02:22.084Z,99619.44
2022-12-15T05:05:07.127Z,99624.06
2022-12-15T05:07:55.203Z,99618.47
2022-12-15T05:10:40.671Z,99624.97
2022-12-15T05:13:26.831Z,99626.41
2022-12-15T05:16:12.418Z,99635.56
2022-12-15T05:18:58.120Z,99641.44
2022-12-15T05:21:43.059Z,99635.13
2022-12-15T05:24:28.307Z,99642.69
2022-12-15T05:27:13.405Z,99639.91
2022-12-15T05:29:58.694Z,99648.47
2022-12-15T05:32:25.309Z,99644.91
2022-12-15T05:34:51.852Z,99644.81
2022-12-15T05:37:18.679Z,99649.09
2022-12-15T05:39:45.576Z,99646.50
2022-12-15T05:42:12.179Z,99653.38
2022-12-15T05:44:38.855Z,99653.38
2022-12-15T05:47:05.414Z,99654.25
2022-12-15T05:49:32.104Z,99655.13
2022-12-15T05:51:58.699Z,99662.06
2022-12-15T05:54:25.513Z,99662.78
2022-12-15T05:56:52.579Z,99667.94
2022-12-15T05:59:19.437Z,99668.84
2022-12-15T06:01:46.485Z,99673.09
2022-12-15T06:04:13.488Z,99674.88
2022-12-15T06:06:41.154Z,99681.81
2022-12-15T06:09:08.350Z,99674.16
2022-12-15T06:11:35.065Z,99677.66
2022-12-15T06:14:01.676Z,99676.84
2022-12-15T06:16:28.359Z,99673.44
2022-12-15T06:18:58.527Z,99680.41
2022-12-15T06:21:31.691Z,99683.97
2022-12-15T06:23:58.538Z,99688.28
2022-12-15T06:26:30.856Z,99691.06
2022-12-15T06:28:59.231Z,99690.25
2022-12-15T06:31:26.968Z,99691.25
2022-12-15T06:34:01.810Z,99694.81
2022-12-15T06:36:30.857Z,99696.66
2022-12-15T06:39:03.360Z,99695.88
2022-12-15T06:41:30.993Z,99697.03
2022-12-15T06:43:58.599Z,99699.97
2022-12-15T06:46:26.824Z,99696.03
2022-12-15T06:48:53.579Z,99695.41
2022-12-15T06:51:20.404Z,99710.28
2022-12-15T06:53:50.888Z,99719.88
2022-12-15T06:56:37.718Z,99724.16
2022-12-15T06:59:05.916Z,99718.63
2022-12-15T07:01:32.975Z,99722.53
2022-12-15T07:04:02.891Z,99718.81
2022-12-15T07:06:36.150Z,99723.63
2022-12-15T07:09:04.058Z,99723.44
2022-12-15T07:11:30.546Z,99729.31
2022-12-15T07:13:57.097Z,99721.50
2022-12-15T07:16:24.801Z,99727.53
2022-12-15T07:18:52.293Z,99736.97
2022-12-15T07:21:19.461Z,99742.22
2022-12-15T07:23:54.588Z,99738.81
2022-12-15T07:26:23.681Z,99755.28
2022-12-15T07:28:50.319Z,99756.25
2022-12-15T07:31:17.757Z,99765.97
2022-12-15T07:33:44.826Z,99775.66
2022-12-15T07:36:12.179Z,99782.78
2022-12-15T07:38:38.975Z,99783.84
2022-12-15T07:41:07.909Z,99791.06
2022-12-15T07:43:35.901Z,99794.63
2022-12-15T07:46:05.004Z,99791.34
2022-12-15T07:48:32.966Z,99782.09
2022-12-15T07:51:10.934Z,99795.16
2022-12-15T07:53:39.093Z,99794.53
2022-12-15T07:56:08.992Z,99795.69
2022-12-15T07:58:37.543Z,99795.84
2022-12-15T08:01:08.001Z,99795.25
2022-12-15T08:03:35.915Z,99797.28
2022-12-15T08:06:06.317Z,99796.75
2022-12-15T08:08:34.318Z,99804.78
2022-12-15T08:11:06.330Z,99806.78
2022-12-15T08:16:23.562Z,99811.78
2022-12-15T08:18:50.361Z,99817.22
2022-12-15T08:21:17.062Z,99811.50
2022-12-15T08:23:43.587Z,99814.34
2022-12-15T08:26:13.600Z,99812.09
2022-12-15T08:28:41.243Z,99820.19
2022-12-15T08:31:13.450Z,99824.81
2022-12-15T08:33:40.826Z,99826.06
2022-12-15T08:36:10.221Z,99827.97
2022-12-15T08:38:38.698Z,99825.59
2022-12-15T08:41:11.131Z,99830.19
2022-12-15T08:43:43.865Z,99821.91
2022-12-15T08:46:17.067Z,99835.13
2022-12-15T08:48:44.054Z,99831.13
2022-12-15T08:51:10.867Z,99831.38
2022-12-15T08:53:38.649Z,99836.81
2022-12-15T08:56:07.954Z,99829.34
2022-12-15T08:58:34.747Z,99836.63
2022-12-15T09:01:04.240Z,99829.22
2022-12-15T09:03:31.601Z,99831.31
2022-12-15T09:06:06.052Z,99831.66
2022-12-15T09:08:35.905Z,99837.25
2022-12-15T09:11:02.526Z,99821.09
2022-12-15T09:13:29.750Z,99837.03
2022-12-15T09:16:10.336Z,99824.50
2022-12-15T09:18:38.083Z,99823.03
2022-12-15T09:21:07.246Z,99827.56
2022-12-15T09:23:35.667Z,99827.91
2022-12-15T09:26:08.944Z,99828.13
2022-12-15T09:28:35.967Z,99835.22
2022-12-15T09:31:17.268Z,99832.91
2022-12-15T09:33:44.515Z,99842.56
2022-12-15T09:36:13.218Z,99844.59
2022-12-15T09:38:41.616Z,99851.00
2022-12-15T09:41:14.031Z,99851.28
2022-12-15T09:43:54.149Z,99849.00
2022-12-15T09:46:21.132Z,99848.34
2022-12-15T09:48:50.311Z,99852.84
2022-12-15T09:51:18.750Z,99858.28
2022-12-15T09:53:55.473Z,99858.59
2022-12-15T09:56:29.855Z,99866.56
2022-12-15T09:59:21.817Z,99865.09
2022-12-15T10:02:06.870Z,99875.78
2022-12-15T10:05:10.599Z,99867.47
2022-12-15T10:07:42.097Z,99871.19
2022-12-15T10:10:28.307Z,99871.50
2022-12-15T10:13:02.474Z,99862.22
2022-12-15T10:15:37.877Z,99871.09
2022-12-15T10:18:22.377Z,99870.50
2022-12-15T10:20:52.125Z,99878.66
2022-12-15T10:23:18.842Z,99877.16
2022-12-15T10:26:20.811Z,99874.75
2022-12-15T10:29:02.838Z,99877.53
2022-12-15T10:31:52.242Z,99876.94
2022-12-15T10:34:34.705Z,99883.22
2022-12-15T10:37:03.688Z,99877.34
2022-12-15T10:39:42.338Z,99887.13
2022-12-15T10:42:12.777Z,99885.63
2022-12-15T10:44:42.932Z,99891.06
2022-12-15T10:47:31.201Z,99895.59
2022-12-15T10:50:24.767Z,99892.44
2022-12-15T10:52:51.979Z,99885.69
2022-12-15T10:55:37.409Z,99892.88
2022-12-15T10:58:15.556Z,99886.16
2022-12-15T11:00:42.479Z,99886.34
2022-12-15T11:03:26.095Z,99888.28
2022-12-15T11:05:54.954Z,99894.44
2022-12-15T11:08:22.887Z,99890.25
2022-12-15T11:11:16.111Z,99899.03
2022-12-15T11:14:07.090Z,99891.41
2022-12-15T11:16:33.728Z,99886.44
2022-12-15T11:19:21.758Z,99884.81
2022-12-15T11:21:59.803Z,99884.25
2022-12-15T11:24:40.204Z,99886.28
2022-12-15T11:27:15.794Z,99888.19
2022-12-15T11:30:00.433Z,99880.53
2022-12-15T11:32:29.855Z,99878.81
2022-12-15T11:34:56.785Z,99888.38
2022-12-15T11:37:37.846Z,99890.88
2022-12-15T11:40:23.578Z,99884.81
2022-12-15T11:42:53.266Z,99892.00
2022-12-15T11:45:36.656Z,99892.41
2022-12-15T11:48:19.458Z,99886.50
2022-12-15T11:51:06.490Z,99896.09
2022-12-15T11:54:10.470Z,99886.63
2022-12-15T11:56:47.368Z,99884.13
2022-12-15T11:59:15.598Z,99880.75
2022-12-15T12:02:02.963Z,99874.84
2022-12-15T12:04:50.777Z,99881.81
2022-12-15T12:07:42.316Z,99881.97
2022-12-15T12:10:28.369Z,99878.69
2022-12-15T12:13:11.903Z,99882.16
2022-12-15T12:16:09.725Z,99874.41
2022-12-15T12:18:52.575Z,99876.19
2022-12-15T12:21:26.495Z,99877.09
2022-12-15T12:24:00.652Z,99872.84
2022-12-15T12:26:45.130Z,99883.16
2022-12-15T12:29:13.057Z,99877.22
2022-12-15T12:35:32.210Z,99868.56
2022-12-15T12:38:04.444Z,99874.72
2022-12-15T12:40:41.342Z,99871.38
2022-12-15T12:43:14.026Z,99873.13
2022-12-15T12:45:56.008Z,99874.16
2022-12-15T12:48:27.850Z,99870.75
2022-12-15T12:51:30.149Z,99873.41
2022-12-15T12:53:58.876Z,99875.16
2022-12-15T12:56:44.329Z,99877.84
2022-12-15T12:59:50.944Z,99877.97
2022-12-15T13:02:20.370Z,99873.66
2022-12-15T13:04:57.228Z,99880.63
2022-12-15T13:07:38.200Z,99883.28
2022-12-15T13:10:04.912Z,99881.59
2022-12-15T13:12:52.653Z,99873.72
2022-12-15T13:15:42.930Z,99877.22
2022-12-15T13:18:20.164Z,99885.09
2022-12-15T13:23:43.301Z,99879.09
2022-12-15T13:26:11.112Z,99873.94
2022-12-15T13:28:40.250Z,99876.53
2022-12-15T13:31:25.164Z,99878.28
2022-12-15T13:33:54.767Z,99866.09
2022-12-15T13:36:39.734Z,99880.00
2022-12-15T13:39:12.489Z,99870.47
2022-12-15T13:44:45.452Z,99872.00
2022-12-15T13:47:14.425Z,99871.13
2022-12-15T13:50:01.796Z,99871.06
2022-12-15T13:55:28.128Z,99874.63
2022-12-15T13:58:00.151Z,99882.44
2022-12-15T14:00:27.080Z,99877.13
2022-12-15T14:03:07.173Z,99872.75
2022-12-15T14:05:33.805Z,99869.31
2022-12-15T14:08:03.526Z,99876.31
2022-12-15T14:10:32.861Z,99875.31
2022-12-15T14:15:59.101Z,99864.91
2022-12-15T14:18:27.380Z,99872.66
2022-12-15T14:20:54.678Z,99869.97
2022-12-15T14:23:26.473Z,99877.75
2022-12-15T14:25:54.844Z,99871.69
2022-12-15T14:28:27.291Z,99875.94
2022-12-15T14:30:57.120Z,99882.91
2022-12-15T14:33:28.205Z,99870.63
2022-12-15T14:35:58.661Z,99874.94
2022-12-15T14:38:40.023Z,99870.41
2022-12-15T14:41:11.138Z,99869.47
2022-12-15T14:43:39.782Z,99875.50
2022-12-15T14:46:09.482Z,99864.16
2022-12-15T14:48:41.788Z,99873.59
2022-12-15T14:51:12.689Z,99865.69
2022-12-15T14:53:42.152Z,99874.28
2022-12-15T14:56:29.730Z,99867.16
2022-12-15T14:59:04.303Z,99866.22
2022-12-15T15:01:41.767Z,99863.50
2022-12-15T15:03:10.166Z,99876.31
2022-12-15T15:03:12.732Z,99875.50
2022-12-15T15:03:13.043Z,99876.44
2022-12-15T15:03:13.114Z,99872.13
2022-12-15T15:03:14.222Z,99870.09
2022-12-15T15:04:34.586Z,99865.16
2022-12-15T15:07:04.776Z,99863.31
2022-12-15T15:09:41.249Z,99854.50
2022-12-15T15:12:14.513Z,99868.19
2022-12-15T15:14:51.557Z,99855.03
2022-12-15T15:17:31.151Z,99861.81
2022-12-15T15:20:02.007Z,99860.06
2022-12-15T15:22:39.901Z,99860.81
2022-12-15T15:25:22.510Z,99855.50
2022-12-15T15:27:49.623Z,99868.44
2022-12-15T15:30:16.674Z,99864.81
2022-12-15T15:32:57.493Z,99861.19
2022-12-15T15:35:30.401Z,99859.28
2022-12-15T15:38:12.130Z,99873.84
2022-12-15T15:40:38.768Z,99875.50
2022-12-15T15:43:12.644Z,99872.78
2022-12-15T15:45:41.726Z,99866.53
2022-12-15T15:48:14.902Z,99875.09
2022-12-15T15:50:41.715Z,99876.72
2022-12-15T15:53:15.313Z,99874.00
2022-12-15T15:55:43.355Z,99869.59
2022-12-15T15:58:13.189Z,99865.19
2022-12-15T16:00:40.410Z,99871.13
2022-12-15T16:03:07.634Z,99870.16
2022-12-15T16:05:35.394Z,99876.19
2022-12-15T16:08:03.732Z,99876.94
2022-12-15T16:10:30.672Z,99868.16
2022-12-15T16:13:01.154Z,99868.94
2022-12-15T16:15:31.689Z,99869.75
2022-12-15T16:17:59.195Z,99880.97
2022-12-15T16:20:29.103Z,99867.84
2022-12-15T16:23:15.879Z,99875.50
2022-12-15T16:25:50.592Z,99882.31
2022-12-15T16:28:20.444Z,99885.75
2022-12-15T16:30:47.572Z,99883.94
2022-12-15T16:33:14.778Z,99881.28
2022-12-15T16:35:42.631Z,99889.03
2022-12-15T16:38:15.811Z,99898.50
2022-12-15T16:40:42.419Z,99899.34
2022-12-15T16:43:22.021Z,99905.38
2022-12-15T16:45:51.094Z,99902.59
2022-12-15T16:48:18.479Z,99910.25
2022-12-15T16:50:58.184Z,99910.13
2022-12-15T16:53:27.606Z,99900.41
2022-12-15T16:55:56.556Z,99908.94
2022-12-15T16:58:25.314Z,99907.19
2022-12-15T17:00:53.738Z,99914.78
2022-12-15T17:03:26.176Z,99919.84
2022-12-15T17:05:58.884Z,99933.56
2022-12-15T17:08:33.190Z,99933.56
2022-12-15T17:11:00.285Z,99939.66
2022-12-15T17:13:39.217Z,99941.28
2022-12-15T17:16:14.375Z,99942.06
2022-12-15T17:18:42.796Z,99944.41
2022-12-15T17:21:16.895Z,99932.09
2022-12-15T17:23:45.886Z,99945.91
2022-12-15T17:26:29.203Z,99943.16
2022-12-15T17:28:59.745Z,99941.31
2022-12-15T17:31:32.918Z,99950.78
2022-12-15T17:34:02.716Z,99949.81
2022-12-15T17:36:29.395Z,99948.88
2022-12-15T17:39:00.786Z,99949.69
2022-12-15T17:41:58.033Z,99947.81
2022-12-15T17:44:33.064Z,99951.31
2022-12-15T17:47:02.347Z,99958.94
2022-12-15T17:49:35.030Z,99950.19
2022-12-15T17:52:16.780Z,99959.69
2022-12-15T17:54:43.453Z,99958.69
2022-12-15T17:57:13.732Z,99970.81
2022-12-15T17:59:40.444Z,99969.00
2022-12-15T18:02:15.620Z,99962.94
2022-12-15T18:04:43.843Z,99972.38
2022-12-15T18:07:20.269Z,99967.97
2022-12-15T18:09:47.861Z,99965.31
2022-12-15T18:12:26.031Z,99963.38
2022-12-15T18:14:53.261Z,99963.22
2022-12-15T18:17:20.387Z,99962.25
2022-12-15T18:19:47.545Z,99963.09
2022-12-15T18:22:17.873Z,99968.28
2022-12-15T18:24:44.729Z,99972.50
2022-12-15T18:27:21.758Z,99966.34
2022-12-15T18:29:49.374Z,99962.84
2022-12-15T18:32:17.052Z,99964.53
2022-12-15T18:34:43.832Z,99974.91
2022-12-15T18:37:18.711Z,99974.75
2022-12-15T18:39:46.274Z,99980.66
2022-12-15T18:42:17.980Z,99979.63
2022-12-15T18:44:52.298Z,99990.81
2022-12-15T18:47:21.824Z,99991.47
2022-12-15T18:49:49.233Z,99993.03
2022-12-15T18:52:21.593Z,99992.94
2022-12-15T18:54:50.417Z,99980.72
2022-12-15T18:57:28.452Z,99993.59
2022-12-15T19:00:07.962Z,100002.13
2022-12-15T19:02:34.630Z,99994.25
2022-12-15T19:05:01.388Z,99992.31
2022-12-15T19:07:27.961Z,99994.91
2022-12-15T19:09:54.898Z,99992.31
2022-12-15T19:12:21.762Z,99996.53
2022-12-15T19:14:50.868Z,100002.38
2022-12-15T19:17:39.633Z,100017.66
2022-12-15T19:20:35.141Z,100017.44
2022-12-15T19:23:01.964Z,100000.19
2022-12-15T19:25:29.579Z,99991.44
2022-12-15T19:28:01.348Z,99992.25
2022-12-15T19:30:35.884Z,99997.41
2022-12-15T19:33:07.438Z,99989.56
2022-12-15T19:35:34.250Z,99991.19
2022-12-15T19:38:03.456Z,99986.91
2022-12-15T19:40:32.897Z,99991.25
2022-12-15T19:43:00.848Z,99984.25
2022-12-15T19:45:30.067Z,99980.69
2022-12-15T19:47:57.288Z,99975.41
2022-12-15T19:50:37.106Z,99986.56
2022-12-15T19:53:11.620Z,99975.25
2022-12-15T19:55:38.691Z,99973.41
2022-12-15T19:58:33.078Z,99974.13
2022-12-15T20:01:10.048Z,99984.31
2022-12-15T20:03:37.411Z,99988.59
2022-12-15T20:06:11.944Z,99985.03
2022-12-15T20:08:41.924Z,99984.81
2022-12-15T20:11:27.761Z,99988.03
2022-12-15T20:13:56.098Z,99989.66
2022-12-15T20:16:24.075Z,99989.50
2022-12-15T20:18:53.411Z,99986.72
2022-12-15T20:21:23.258Z,99980.47
2022-12-15T20:24:00.587Z,99993.28
2022-12-15T20:26:29.448Z,99979.34
2022-12-15T20:28:56.816Z,99997.31
2022-12-15T20:31:25.214Z,99994.75
2022-12-15T20:33:52.511Z,99986.81
2022-12-15T20:36:22.198Z,99987.53
2022-12-15T20:38:49.001Z,99984.78
2022-12-15T20:41:22.003Z,99983.72
2022-12-15T20:43:49.470Z,99990.50
2022-12-15T20:46:21.154Z,99992.91
2022-12-15T20:48:49.344Z,99994.53
2022-12-15T20:51:22.010Z,99990.78
2022-12-15T20:53:49.600Z,99994.19
2022-12-15T20:56:17.574Z,99992.41
2022-12-15T20:58:46.101Z,99987.06
2022-12-15T21:01:18.926Z,99987.88
2022-12-15T21:03:46.861Z,99985.09
2022-12-15T21:06:13.628Z,99987.47
2022-12-15T21:08:40.656Z,99996.75
2022-12-15T21:11:15.218Z,99989.63
2022-12-15T21:13:42.890Z,99994.63
2022-12-15T21:16:15.885Z,99994.44
2022-12-15T21:19:19.211Z,99994.28
2022-12-15T21:21:35.259Z,99984.72
2022-12-15T21:24:12.954Z,99990.69
2022-12-15T21:26:39.609Z,99999.28
2022-12-15T21:29:12.832Z,99996.56
2022-12-15T21:31:39.388Z,100008.56
2022-12-15T21:34:09.440Z,100005.06
2022-12-15T21:36:37.596Z,99999.81
2022-12-15T21:39:06.884Z,100001.50
2022-12-15T21:41:34.304Z,100004.81
2022-12-15T21:44:01.001Z,99995.97
2022-12-15T21:46:31.135Z,100009.72
2022-12-15T21:49:18.016Z,100005.19
2022-12-15T21:51:44.905Z,100008.28
2022-12-15T21:54:30.456Z,100013.91
2022-12-15T21:56:58.824Z,100015.34
2022-12-15T21:59:27.875Z,100022.03
2022-12-15T22:01:56.001Z,100018.47
2022-12-15T22:04:32.168Z,100011.50
2022-12-15T22:06:58.916Z,100017.41
2022-12-15T22:09:25.632Z,100019.91
2022-12-15T22:11:54.046Z,100028.34
2022-12-15T22:14:29.655Z,100029.88
2022-12-15T22:16:57.801Z,100028.88
2022-12-15T22:19:27.021Z,100033.16
2022-12-15T22:21:54.112Z,100033.16
2022-12-15T22:24:21.819Z,100024.41
2022-12-15T22:26:48.579Z,100034.66
2022-12-15T22:29:21.697Z,100030.31
2022-12-15T22:31:52.845Z,100033.59
2022-12-15T22:34:25.489Z,100029.06
2022-12-15T22:36:52.257Z,100030.75
2022-12-15T22:39:22.335Z,100033.25
2022-12-15T22:41:51.685Z,100031.53
2022-12-15T22:44:26.875Z,100030.75
2022-12-15T22:46:56.545Z,100036.69
2022-12-15T22:49:28.791Z,100041.69
2022-12-15T22:51:55.493Z,100038.84
2022-12-15T22:54:24.464Z,100031.81
2022-12-15T22:56:58.471Z,100031.72
2022-12-15T22:59:29.463Z,100041.06
2022-12-15T23:01:56.438Z,100052.09
2022-12-15T23:04:24.042Z,100040.78
2022-12-15T23:06:50.677Z,100046.44
2022-12-15T23:09:18.611Z,100051.44
2022-12-15T23:11:45.158Z,100053.03
2022-12-15T23:14:14.752Z,100047.59
2022-12-15T23:16:43.458Z,100050.88
2022-12-15T23:19:23.486Z,100051.56
2022-12-15T23:21:51.526Z,100046.22
2022-12-15T23:24:20.510Z,100047.81
2022-12-15T23:26:47.009Z,100046.06
2022-12-15T23:29:16.761Z,100048.72
2022-12-15T23:31:43.474Z,100042.66
2022-12-15T23:34:12.762Z,100038.41
2022-12-15T23:36:39.475Z,100042.47
2022-12-15T23:39:06.151Z,100045.88
2022-12-15T23:41:33.033Z,100050.13
2022-12-15T23:43:59.831Z,100056.91
2022-12-15T23:46:26.330Z,100051.44
2022-12-15T23:48:52.858Z,100051.25
2022-12-15T23:51:21.609Z,100048.50
2022-12-15T23:53:48.236Z,100050.06
2022-12-15T23:56:20.385Z,100061.19
2022-12-15T23:58:49.555Z,100055.94
